Time;durP1;ratioP1;P1;durP2;ratioP2;P2;SDS_P1;SDS_P2;PMS_P1;PMS_P2;Temp;Humidity;BMP_temperature;BMP_pressure;BME280_temperature;BME280_humidity;BME280_pressure;Samples;Min_cycle;Max_cycle;Signal;HPM_P1;HPM_P2
2022/05/20 00:02:12;;;;;;;4.33;2.97;;;18.00;99.90;;;;;;5133701;27;20166;-82
2022/05/20 00:04:38;;;;;;;3.73;2.60;;;17.90;99.90;;;;;;5132297;28;20565;-81
2022/05/20 00:07:04;;;;;;;3.13;2.47;;;17.90;99.90;;;;;;5133861;27;20176;-81
2022/05/20 00:09:29;;;;;;;3.30;2.80;;;17.90;99.90;;;;;;5133381;28;20172;-81
2022/05/20 00:11:55;;;;;;;4.63;2.83;;;17.80;99.90;;;;;;5132806;28;20179;-81
2022/05/20 00:14:21;;;;;;;3.33;2.20;;;17.80;99.90;;;;;;5132181;28;20212;-81
2022/05/20 00:16:47;;;;;;;4.50;2.73;;;17.80;99.90;;;;;;5133784;27;20687;-81
2022/05/20 00:19:13;;;;;;;2.93;2.50;;;17.70;99.90;;;;;;5131613;28;20240;-81
2022/05/20 00:21:38;;;;;;;3.37;2.50;;;17.70;99.90;;;;;;5133176;27;20201;-81
2022/05/20 00:24:04;;;;;;;7.73;3.20;;;17.60;99.90;;;;;;5132553;28;20216;-82
2022/05/20 00:26:30;;;;;;;4.57;3.30;;;17.60;99.90;;;;;;5120242;28;20205;-81
2022/05/20 00:28:56;;;;;;;3.70;3.30;;;17.60;99.90;;;;;;5119425;28;20185;-81
2022/05/20 00:31:24;;;;;;;4.23;3.40;;;17.60;99.90;;;;;;5118338;28;20189;-81
2022/05/20 00:33:50;;;;;;;4.17;3.13;;;17.50;99.90;;;;;;5116995;28;20256;-82
2022/05/20 00:36:16;;;;;;;3.10;2.80;;;17.50;99.90;;;;;;5117342;28;20250;-81
2022/05/20 00:38:41;;;;;;;4.00;3.40;;;17.50;99.90;;;;;;5118881;28;20572;-81
2022/05/20 00:41:09;;;;;;;6.20;3.10;;;17.40;99.90;;;;;;5116631;28;20558;-82
2022/05/20 00:43:40;;;;;;;7.20;3.07;;;17.40;99.90;;;;;;5118073;28;20686;-81
2022/05/20 00:46:11;;;;;;;3.57;2.90;;;17.30;99.90;;;;;;5116531;28;20204;-82
2022/05/20 00:48:37;;;;;;;3.33;2.77;;;17.30;99.90;;;;;;5117667;28;20528;-82
2022/05/20 00:51:08;;;;;;;3.93;3.20;;;17.20;99.90;;;;;;5117305;28;20181;-82
2022/05/20 00:53:38;;;;;;;6.27;3.33;;;17.10;99.90;;;;;;5115970;28;20208;-82
2022/05/20 00:56:07;;;;;;;4.00;3.07;;;17.10;99.90;;;;;;5118712;28;20190;-82
2022/05/20 00:58:33;;;;;;;4.47;2.93;;;17.00;99.90;;;;;;5119604;28;20599;-81
2022/05/20 01:01:01;;;;;;;5.57;3.07;;;17.00;99.90;;;;;;5119477;28;20171;-82
2022/05/20 01:03:29;;;;;;;4.07;3.00;;;16.90;99.90;;;;;;5119901;28;20557;-80
2022/05/20 01:05:56;;;;;;;6.40;3.00;;;16.80;99.90;;;;;;5119044;28;20206;-82
2022/05/20 01:08:26;;;;;;;4.33;2.97;;;16.80;99.90;;;;;;5120372;28;20181;-82
2022/05/20 01:10:53;;;;;;;3.37;2.87;;;16.70;99.90;;;;;;5117765;28;20170;-82
2022/05/20 01:13:20;;;;;;;4.87;3.23;;;16.70;99.90;;;;;;5117248;28;20285;-82
2022/05/20 01:15:46;;;;;;;4.73;3.10;;;16.70;99.90;;;;;;5118191;28;20266;-82
2022/05/20 01:18:14;;;;;;;3.90;3.00;;;16.60;99.90;;;;;;5117792;28;20184;-82
2022/05/20 01:20:44;;;;;;;5.40;2.70;;;16.60;99.90;;;;;;5117677;28;20174;-81
2022/05/20 01:23:11;;;;;;;3.57;2.70;;;16.50;99.90;;;;;;5119326;28;20173;-81
2022/05/20 01:25:42;;;;;;;4.53;2.73;;;16.50;99.90;;;;;;5118171;28;20192;-82
2022/05/20 01:28:08;;;;;;;6.07;3.20;;;16.50;99.90;;;;;;5118464;28;20166;-81
2022/05/20 01:30:34;;;;;;;4.60;2.90;;;16.40;99.90;;;;;;5118928;28;20186;-81
2022/05/20 01:33:05;;;;;;;5.00;3.00;;;16.40;99.90;;;;;;5119311;28;20177;-81
2022/05/20 01:35:42;;;;;;;4.43;3.00;;;16.40;99.90;;;;;;5117565;28;20284;-82
2022/05/20 01:38:10;;;;;;;5.40;3.40;;;16.30;99.90;;;;;;5118105;28;20165;-82
2022/05/20 01:40:43;;;;;;;4.93;3.17;;;16.30;99.90;;;;;;5118971;28;20173;-82
2022/05/20 01:43:29;;;;;;;5.60;3.53;;;16.20;99.90;;;;;;5119626;27;20248;-82
2022/05/20 01:46:33;;;;;;;4.87;3.30;;;16.10;99.90;;;;;;5117322;28;20196;-82
2022/05/20 01:49:31;;;;;;;5.10;2.93;;;16.10;99.90;;;;;;5119047;28;20162;-81
2022/05/20 01:52:25;;;;;;;4.60;3.20;;;16.00;99.90;;;;;;5118000;28;20172;-81
2022/05/20 01:55:06;;;;;;;4.53;3.80;;;16.00;99.90;;;;;;5117531;28;20213;-82
2022/05/20 01:57:47;;;;;;;6.37;3.83;;;16.00;99.90;;;;;;5117790;28;20252;-83
2022/05/20 02:00:21;;;;;;;4.47;3.93;;;15.90;99.90;;;;;;5118150;28;20658;-82
2022/05/20 02:02:58;;;;;;;5.80;3.80;;;15.90;99.90;;;;;;5119375;28;20172;-82
2022/05/20 02:05:43;;;;;;;5.97;3.70;;;15.80;99.90;;;;;;5118109;28;20199;-82
2022/05/20 02:08:17;;;;;;;5.00;3.63;;;15.70;99.90;;;;;;5119129;28;20168;-82
2022/05/20 02:10:58;;;;;;;7.60;4.37;;;15.70;99.90;;;;;;5119035;28;20160;-82
2022/05/20 02:13:27;;;;;;;4.70;3.83;;;15.70;99.90;;;;;;5118981;28;20611;-81
2022/05/20 02:16:02;;;;;;;7.87;4.00;;;15.70;99.90;;;;;;5116942;28;20196;-82
2022/05/20 02:18:36;;;;;;;5.70;4.10;;;15.60;99.90;;;;;;5118363;28;20269;-82
2022/05/20 02:21:07;;;;;;;5.40;3.57;;;15.70;99.90;;;;;;5117811;28;20171;-81
2022/05/20 02:23:40;;;;;;;4.10;3.40;;;15.60;99.90;;;;;;5119093;28;20237;-81
2022/05/20 02:26:13;;;;;;;5.70;3.57;;;15.60;99.90;;;;;;5119614;28;20199;-80
2022/05/20 02:28:42;;;;;;;4.77;3.50;;;15.60;99.90;;;;;;5119697;28;20199;-80
2022/05/20 02:31:24;;;;;;;6.43;3.50;;;15.60;99.90;;;;;;5117321;28;20180;-81
2022/05/20 02:33:51;;;;;;;4.77;3.77;;;15.60;99.90;;;;;;5116858;28;20202;-81
2022/05/20 02:36:25;;;;;;;4.83;3.30;;;15.50;99.90;;;;;;5116706;28;20180;-81
2022/05/20 02:38:51;;;;;;;5.70;3.57;;;15.60;99.90;;;;;;5116694;28;20167;-81
2022/05/20 02:41:17;;;;;;;4.40;3.17;;;15.60;99.90;;;;;;5116980;28;20176;-82
2022/05/20 02:43:43;;;;;;;6.90;3.40;;;15.60;99.90;;;;;;5116562;28;20187;-80
2022/05/20 02:46:11;;;;;;;8.53;3.60;;;15.50;99.90;;;;;;5115865;28;20199;-81
2022/05/20 02:48:36;;;;;;;4.03;3.53;;;15.50;99.90;;;;;;5116375;28;20186;-81
2022/05/20 02:51:02;;;;;;;4.97;3.47;;;15.50;99.90;;;;;;5114946;28;20179;-81
2022/05/20 02:53:28;;;;;;;3.97;3.43;;;15.60;99.90;;;;;;5114737;28;20537;-81
2022/05/20 02:55:55;;;;;;;8.83;3.70;;;15.50;99.90;;;;;;5114738;28;20198;-82
2022/05/20 03:04:09;;;;;;;5.30;3.53;;;15.60;99.90;;;;;;5117204;28;20207;-81
2022/05/20 03:06:37;;;;;;;5.37;3.50;;;15.50;99.90;;;;;;5117423;28;20247;-81
2022/05/20 03:09:05;;;;;;;7.37;3.50;;;15.50;99.90;;;;;;5118234;28;20180;-81
2022/05/20 03:11:33;;;;;;;5.57;3.33;;;15.50;99.90;;;;;;5115638;28;20179;-81
2022/05/20 03:14:03;;;;;;;7.77;3.30;;;15.40;99.90;;;;;;5117528;28;20203;-83
2022/05/20 03:16:29;;;;;;;3.97;3.57;;;15.40;99.90;;;;;;5116541;28;20209;-81
2022/05/20 03:18:55;;;;;;;3.80;3.30;;;;;;;;;;5115444;28;20262;-82
2022/05/20 03:21:21;;;;;;;7.00;3.77;;;15.40;99.90;;;;;;5115773;28;20257;-81
2022/05/20 03:23:47;;;;;;;8.87;3.47;;;;;;;;;;5115146;28;20187;-81
2022/05/20 03:26:12;;;;;;;3.83;3.37;;;15.30;99.90;;;;;;5115033;28;20203;-81
2022/05/20 03:28:39;;;;;;;4.20;3.43;;;15.40;99.90;;;;;;5116879;28;20180;-82
2022/05/20 03:31:09;;;;;;;5.63;3.27;;;15.30;99.90;;;;;;5115750;28;20179;-81
2022/05/20 03:33:36;;;;;;;7.17;3.30;;;15.30;99.90;;;;;;5115925;28;20223;-82
2022/05/20 03:36:02;;;;;;;5.60;3.20;;;15.30;99.90;;;;;;5116909;28;20195;-81
2022/05/20 03:38:28;;;;;;;6.87;4.00;;;15.30;99.90;;;;;;5115278;28;20591;-81
2022/05/20 03:40:54;;;;;;;6.53;3.50;;;;;;;;;;5117952;28;20176;-82
2022/05/20 03:43:20;;;;;;;5.20;3.33;;;15.20;99.90;;;;;;5118059;28;20259;-80
2022/05/20 03:45:46;;;;;;;4.33;3.20;;;;;;;;;;5116661;28;20284;-80
2022/05/20 03:48:12;;;;;;;5.73;3.30;;;;;;;;;;5116456;28;20187;-82
2022/05/20 03:50:37;;;;;;;5.97;3.23;;;15.30;99.90;;;;;;5118798;28;20182;-81
2022/05/20 03:53:03;;;;;;;5.37;3.27;;;15.30;99.90;;;;;;5116550;28;20176;-82
2022/05/20 03:55:29;;;;;;;4.03;3.23;;;15.30;99.90;;;;;;5117965;28;20188;-82
2022/05/20 03:57:55;;;;;;;3.23;2.90;;;;;;;;;;5117348;28;20168;-82
2022/05/20 04:00:22;;;;;;;3.87;2.97;;;15.30;99.90;;;;;;5117768;28;20543;-82
2022/05/20 04:02:47;;;;;;;4.93;3.50;;;15.40;99.90;;;;;;5121356;28;20577;-80
2022/05/20 04:05:13;;;;;;;6.37;3.17;;;;;;;;;;5121100;28;20252;-80
2022/05/20 04:07:39;;;;;;;6.03;3.03;;;;;;;;;;5121205;28;20186;-82
2022/05/20 04:10:09;;;;;;;3.90;2.93;;;15.50;99.90;;;;;;5122645;28;20510;-82
2022/05/20 04:12:40;;;;;;;4.97;2.97;;;15.50;99.90;;;;;;5120961;28;20180;-80
2022/05/20 04:15:12;;;;;;;5.20;2.97;;;15.50;99.90;;;;;;5121669;28;20246;-82
2022/05/20 04:17:38;;;;;;;6.90;3.20;;;15.50;99.90;;;;;;5121494;28;20159;-81
2022/05/20 04:20:08;;;;;;;6.50;3.60;;;15.60;99.90;;;;;;5121798;28;20174;-81
2022/05/20 04:22:36;;;;;;;4.67;2.80;;;;;;;;;;5123927;28;20227;-80
2022/05/20 04:25:02;;;;;;;3.67;3.10;;;15.70;99.90;;;;;;5122998;28;20207;-81
2022/05/20 04:27:28;;;;;;;6.00;2.90;;;15.70;99.90;;;;;;5122964;28;20183;-81
2022/05/20 04:29:54;;;;;;;3.20;2.87;;;;;;;;;;5123429;28;20179;-83
2022/05/20 04:32:20;;;;;;;5.17;3.00;;;15.90;99.90;;;;;;5121109;28;20649;-82
2022/05/20 04:34:47;;;;;;;3.50;2.60;;;;;;;;;;5120140;28;20218;-81
2022/05/20 04:37:13;;;;;;;3.53;3.20;;;16.00;99.90;;;;;;5120018;28;20183;-82
2022/05/20 04:39:40;;;;;;;4.70;2.80;;;16.00;99.90;;;;;;5119933;28;20176;-82
2022/05/20 04:47:34;;;;;;;4.00;2.90;;;16.10;99.90;;;;;;5116959;28;20525;-76
2022/05/20 04:50:00;;;;;;;5.03;3.23;;;16.20;99.90;;;;;;5116701;28;20234;-76
2022/05/20 04:52:26;;;;;;;5.97;3.33;;;16.20;99.90;;;;;;5117125;28;20184;-77
2022/05/20 04:54:52;;;;;;;3.60;2.73;;;16.30;99.90;;;;;;5116546;28;20293;-77
2022/05/20 04:57:22;;;;;;;3.57;3.27;;;16.30;99.90;;;;;;5116603;27;20168;-77
2022/05/20 04:59:48;;;;;;;3.73;3.00;;;16.30;99.90;;;;;;5116603;28;20168;-76
2022/05/20 05:02:14;;;;;;;3.63;3.00;;;16.40;99.90;;;;;;5115238;28;20172;-78
2022/05/20 05:04:40;;;;;;;5.20;2.93;;;16.40;99.90;;;;;;5115230;28;20203;-76
2022/05/20 05:07:09;;;;;;;5.17;3.73;;;16.50;99.90;;;;;;5116426;28;20556;-76
2022/05/20 05:09:37;;;;;;;4.33;3.30;;;16.50;99.90;;;;;;5114837;28;20655;-76
2022/05/20 05:12:04;;;;;;;4.13;2.70;;;16.50;99.90;;;;;;5115983;28;20199;-76
2022/05/20 05:14:36;;;;;;;4.63;3.03;;;16.50;99.90;;;;;;5120080;28;20215;-80
2022/05/20 05:17:08;;;;;;;3.57;2.90;;;16.60;99.90;;;;;;5118809;28;20163;-80
2022/05/20 05:19:39;;;;;;;4.50;2.80;;;16.60;99.90;;;;;;5118816;28;20163;-81
2022/05/20 05:22:06;;;;;;;4.60;3.03;;;16.60;99.90;;;;;;5120057;28;20159;-81
2022/05/20 05:24:32;;;;;;;4.90;2.97;;;16.40;99.90;;;;;;5118904;28;20203;-80
2022/05/20 05:26:58;;;;;;;4.00;3.07;;;16.70;99.90;;;;;;5118611;28;20183;-81
2022/05/20 05:29:23;;;;;;;3.63;2.80;;;16.70;99.90;;;;;;5120124;28;20775;-80
2022/05/20 05:31:49;;;;;;;4.63;2.90;;;16.80;99.90;;;;;;5118497;28;20213;-81
2022/05/20 05:34:16;;;;;;;3.97;3.03;;;17.00;99.90;;;;;;5120112;28;20211;-81
2022/05/20 05:36:41;;;;;;;3.80;3.10;;;17.00;99.90;;;;;;5119950;28;20177;-80
2022/05/20 05:39:07;;;;;;;3.40;3.10;;;17.00;99.90;;;;;;5119229;28;20609;-82
2022/05/20 05:41:33;;;;;;;3.73;3.00;;;17.20;99.90;;;;;;5120214;28;20625;-84
2022/05/20 05:44:01;;;;;;;3.70;2.90;;;17.30;99.90;;;;;;5126131;28;20242;-84
2022/05/20 05:46:27;;;;;;;4.60;3.10;;;17.40;99.90;;;;;;5133181;28;20179;-83
2022/05/20 05:48:52;;;;;;;8.00;3.23;;;17.50;99.90;;;;;;5123428;28;20258;-83
2022/05/20 05:51:18;;;;;;;4.27;3.00;;;17.60;99.90;;;;;;5120828;28;20180;-83
2022/05/20 05:53:44;;;;;;;3.73;2.93;;;17.60;99.90;;;;;;5119648;28;20204;-83
2022/05/20 05:56:11;;;;;;;4.73;3.07;;;17.70;99.90;;;;;;5121030;28;20228;-83
2022/05/20 05:58:37;;;;;;;6.23;3.00;;;17.80;99.90;;;;;;5119652;28;20178;-81
2022/05/20 06:01:04;;;;;;;4.20;3.13;;;17.80;99.90;;;;;;5119858;28;20255;-82
2022/05/20 06:03:30;;;;;;;5.43;3.30;;;17.90;99.90;;;;;;5123869;28;20218;-82
2022/05/20 06:05:56;;;;;;;5.23;2.93;;;18.00;99.90;;;;;;5116874;28;20203;-82
2022/05/20 06:08:22;;;;;;;4.40;3.07;;;18.10;99.90;;;;;;5117167;28;20630;-82
2022/05/20 06:10:48;;;;;;;3.10;2.70;;;18.20;99.90;;;;;;5118546;28;20619;-82
2022/05/20 06:13:25;;;;;;;5.63;3.13;;;18.30;99.90;;;;;;5116377;28;20196;-82
2022/05/20 06:15:52;;;;;;;4.63;2.63;;;18.50;99.90;;;;;;5117925;28;20253;-80
2022/05/20 06:18:17;;;;;;;3.93;2.80;;;18.60;99.90;;;;;;5120208;28;20204;-82
2022/05/20 06:20:43;;;;;;;5.13;2.73;;;18.80;99.90;;;;;;5116703;28;20176;-82
2022/05/20 06:23:09;;;;;;;4.20;3.10;;;18.90;99.90;;;;;;5117045;28;20187;-82
2022/05/20 06:25:35;;;;;;;3.57;2.83;;;19.00;99.90;;;;;;5117247;28;20197;-81
2022/05/20 06:28:10;;;;;;;5.03;3.00;;;19.10;99.90;;;;;;5118630;28;20181;-81
2022/05/20 06:30:36;;;;;;;4.17;2.90;;;19.20;99.90;;;;;;5118971;27;20214;-81
2022/05/20 06:33:03;;;;;;;4.77;3.20;;;19.30;99.90;;;;;;5117827;28;20594;-81
2022/05/20 06:40:59;;;;;;;4.83;2.83;;;19.70;99.90;;;;;;5118854;28;20171;-82
2022/05/20 06:43:26;;;;;;;4.03;2.67;;;19.80;99.90;;;;;;5116612;28;20179;-82
2022/05/20 06:45:56;;;;;;;4.77;2.77;;;20.00;99.90;;;;;;5117046;28;20207;-82
2022/05/20 06:48:22;;;;;;;3.20;2.90;;;20.20;99.90;;;;;;5116761;28;20634;-82
2022/05/20 06:50:48;;;;;;;3.37;2.80;;;20.40;99.90;;;;;;5117479;28;20719;-82
2022/05/20 06:53:14;;;;;;;8.40;2.77;;;20.50;99.90;;;;;;5118877;28;20198;-81
2022/05/20 06:55:40;;;;;;;4.90;2.70;;;20.60;99.90;;;;;;5123351;28;20286;-81
2022/05/20 06:58:06;;;;;;;5.70;3.20;;;20.70;99.90;;;;;;5121487;28;20189;-81
2022/05/20 07:00:31;;;;;;;4.50;2.87;;;20.80;99.90;;;;;;5115767;28;20175;-81
2022/05/20 07:02:57;;;;;;;4.10;2.83;;;20.90;99.90;;;;;;5116339;28;20270;-81
2022/05/20 07:05:23;;;;;;;5.30;2.53;;;21.10;99.90;;;;;;5115033;28;20207;-81
2022/05/20 07:07:48;;;;;;;3.80;2.73;;;21.10;99.90;;;;;;5115733;28;20179;-81
2022/05/20 07:10:16;;;;;;;4.50;2.73;;;21.20;99.90;;;;;;5116286;28;20179;-81
2022/05/20 07:12:42;;;;;;;3.43;2.80;;;21.40;99.90;;;;;;5115811;28;20228;-81
2022/05/20 07:15:09;;;;;;;3.77;2.93;;;21.40;99.90;;;;;;5114749;28;20219;-81
2022/05/20 07:17:36;;;;;;;5.87;3.03;;;21.50;99.90;;;;;;5114387;28;20229;-81
2022/05/20 07:20:06;;;;;;;5.53;2.60;;;21.60;99.90;;;;;;5113242;28;20266;-81
2022/05/20 07:22:32;;;;;;;4.47;3.03;;;21.70;99.90;;;;;;5115648;28;20179;-81
2022/05/20 07:24:57;;;;;;;3.50;2.70;;;21.80;99.90;;;;;;5116977;28;20205;-81
2022/05/20 07:27:23;;;;;;;4.07;3.00;;;21.80;99.90;;;;;;5118107;28;20632;-81
2022/05/20 07:29:49;;;;;;;4.60;2.90;;;21.90;99.90;;;;;;5117349;28;20171;-81
2022/05/20 07:32:14;;;;;;;6.00;3.00;;;22.10;99.90;;;;;;5118021;28;20237;-82
2022/05/20 07:34:40;;;;;;;6.93;3.57;;;22.30;99.90;;;;;;5119961;28;20286;-81
2022/05/20 07:37:06;;;;;;;4.87;3.20;;;22.40;99.90;;;;;;5121089;28;20536;-81
2022/05/20 07:39:32;;;;;;;3.80;2.77;;;22.60;99.90;;;;;;5121386;28;20175;-81
2022/05/20 07:41:57;;;;;;;4.20;3.10;;;22.80;99.90;;;;;;5123934;28;20207;-82
2022/05/20 07:44:23;;;;;;;4.47;2.60;;;23.10;99.90;;;;;;5119995;28;20203;-81
2022/05/20 07:46:48;;;;;;;3.43;2.97;;;23.20;99.90;;;;;;5121754;28;20175;-81
2022/05/20 07:49:15;;;;;;;4.10;3.00;;;23.30;99.90;;;;;;5121310;28;20633;-80
2022/05/20 07:51:45;;;;;;;6.17;3.57;;;23.40;99.90;;;;;;5121304;28;20215;-81
2022/05/20 07:54:19;;;;;;;5.13;2.70;;;23.50;99.90;;;;;;5122423;28;20293;-81
2022/05/20 07:56:51;;;;;;;4.77;3.07;;;23.60;99.90;;;;;;5121032;28;20159;-81
2022/05/20 07:59:24;;;;;;;4.33;2.60;;;23.80;99.90;;;;;;5122234;28;20175;-81
2022/05/20 08:01:52;;;;;;;3.50;3.00;;;23.80;99.90;;;;;;5121211;28;20170;-82
2022/05/20 08:07:13;;;;;;;3.87;3.10;;;24.00;99.90;;;;;;5122188;28;20168;-81
2022/05/20 08:09:39;;;;;;;4.83;3.07;;;24.20;99.90;;;;;;5121290;28;20172;-82
2022/05/20 08:12:05;;;;;;;5.07;3.30;;;24.30;99.90;;;;;;5122717;28;20260;-80
2022/05/20 08:14:30;;;;;;;5.40;3.03;;;24.40;99.90;;;;;;5131631;28;20216;-80
2022/05/20 08:16:58;;;;;;;7.27;2.97;;;24.70;99.90;;;;;;5127896;28;20182;-81
2022/05/20 08:19:24;;;;;;;6.50;2.87;;;25.10;99.90;;;;;;5119468;28;20548;-81
2022/05/20 08:21:50;;;;;;;3.87;2.50;;;25.30;99.90;;;;;;5119541;28;20179;-81
2022/05/20 08:24:15;;;;;;;4.13;2.87;;;25.60;99.90;;;;;;5120403;28;20193;-81
2022/05/20 08:26:41;;;;;;;5.20;2.90;;;26.00;99.90;;;;;;5119901;28;20211;-81
2022/05/20 08:29:07;;;;;;;5.07;2.70;;;26.30;99.90;;;;;;5119495;28;20207;-81
2022/05/20 08:31:33;;;;;;;4.60;2.90;;;26.20;99.90;;;;;;5120182;28;20177;-82
2022/05/20 08:34:00;;;;;;;5.40;2.70;;;25.90;99.90;;;;;;5120085;28;20270;-81
2022/05/20 08:36:26;;;;;;;4.60;2.63;;;25.90;99.90;;;;;;5118780;28;20718;-81
2022/05/20 08:38:51;;;;;;;8.90;3.17;;;25.60;99.90;;;;;;5119620;28;20273;-81
2022/05/20 08:41:28;;;;;;;5.87;2.60;;;25.60;99.90;;;;;;5119987;28;20210;-81
2022/05/20 08:43:53;;;;;;;2.90;2.47;;;25.70;99.90;;;;;;5121251;28;20173;-80
2022/05/20 08:46:25;;;;;;;5.57;3.27;;;25.90;99.90;;;;;;5120525;28;20170;-80
2022/05/20 08:48:54;;;;;;;6.53;2.50;;;26.20;99.90;;;;;;5119804;28;20564;-81
2022/05/20 08:51:21;;;;;;;5.60;3.10;;;26.40;99.90;;;;;;5118118;28;20182;-81
2022/05/20 08:53:48;;;;;;;5.83;2.67;;;26.60;99.90;;;;;;5118286;28;20216;-79
2022/05/20 08:56:19;;;;;;;3.37;2.70;;;26.60;99.90;;;;;;5120129;28;20186;-80
2022/05/20 08:58:57;;;;;;;3.03;2.63;;;26.70;99.90;;;;;;5118505;28;20170;-80
2022/05/20 09:01:27;;;;;;;3.87;2.30;;;26.70;99.90;;;;;;5118160;28;20226;-81
2022/05/20 09:03:52;;;;;;;2.73;2.27;;;26.70;99.90;;;;;;5119202;28;20181;-80
2022/05/20 09:06:18;;;;;;;4.53;2.50;;;26.50;99.90;;;;;;5120732;28;20183;-81
2022/05/20 09:09:00;;;;;;;6.57;2.93;;;26.40;99.90;;;;;;5120261;28;20171;-81
2022/05/20 09:11:30;;;;;;;2.60;2.40;;;26.30;99.10;;;;;;5119518;28;20179;-81
2022/05/20 09:17:21;;;;;;;4.30;2.60;;;26.60;99.40;;;;;;5077348;28;20169;-81
2022/05/20 09:20:18;;;;;;;6.97;2.80;;;27.00;99.50;;;;;;5116389;28;20179;-79
2022/05/20 09:22:56;;;;;;;3.47;2.37;;;27.00;97.90;;;;;;5108685;28;20229;-80
2022/05/20 09:25:26;;;;;;;7.27;2.60;;;27.20;99.90;;;;;;5116579;28;20668;-81
2022/05/20 09:28:12;;;;;;;3.30;2.10;;;27.50;99.20;;;;;;5115128;28;20215;-81
2022/05/20 09:30:40;;;;;;;5.13;2.67;;;28.00;97.80;;;;;;5099007;28;20176;-81
2022/05/20 09:33:18;;;;;;;6.23;2.60;;;28.60;94.80;;;;;;5118291;28;20179;-80
2022/05/20 09:35:49;;;;;;;5.40;2.30;;;29.00;94.10;;;;;;5117050;28;20203;-81
2022/05/20 09:38:38;;;;;;;5.90;2.40;;;29.50;92.50;;;;;;5118468;28;20187;-80
2022/05/20 09:41:20;;;;;;;5.27;2.33;;;29.70;86.50;;;;;;5116468;28;20205;-80
2022/05/20 09:43:57;;;;;;;3.23;1.80;;;29.80;86.10;;;;;;5116671;28;20182;-81
2022/05/20 09:46:41;;;;;;;6.70;2.93;;;29.80;85.50;;;;;;5118209;28;20209;-81
2022/05/20 09:49:15;;;;;;;4.00;2.40;;;29.80;80.60;;;;;;5116444;28;20172;-81
2022/05/20 09:51:49;;;;;;;6.67;2.50;;;30.00;90.00;;;;;;5116745;28;20243;-81
2022/05/20 09:54:35;;;;;;;6.40;2.20;;;30.10;83.90;;;;;;5116743;28;20295;-80
2022/05/20 09:57:04;;;;;;;3.23;2.20;;;30.20;86.80;;;;;;5116698;28;20187;-82
2022/05/20 09:59:41;;;;;;;5.10;2.80;;;30.10;90.60;;;;;;5115466;28;20217;-81
2022/05/20 10:02:13;;;;;;;4.87;2.37;;;30.10;85.20;;;;;;5118168;28;20159;-80
2022/05/20 10:04:56;;;;;;;4.77;2.50;;;30.20;82.50;;;;;;5117919;28;20191;-80
2022/05/20 10:07:46;;;;;;;3.47;2.10;;;30.30;73.60;;;;;;5117552;28;20167;-80
2022/05/20 10:10:20;;;;;;;4.97;2.17;;;30.30;69.70;;;;;;5121029;28;20169;-80
2022/05/20 10:12:48;;;;;;;3.93;2.17;;;30.20;72.90;;;;;;5119175;28;20267;-80
2022/05/20 10:15:32;;;;;;;6.17;2.40;;;30.50;75.10;;;;;;5118224;28;20215;-80
2022/05/20 10:18:03;;;;;;;3.60;1.93;;;30.70;72.90;;;;;;5118509;28;20496;-81
2022/05/20 10:20:50;;;;;;;5.00;3.03;;;30.80;67.80;;;;;;5117065;28;20220;-82
2022/05/20 10:23:51;;;;;;;3.77;2.27;;;30.90;73.10;;;;;;5118876;28;20159;-82
2022/05/20 10:26:29;;;;;;;4.10;2.40;;;31.00;72.70;;;;;;5117181;28;20202;-80
2022/05/20 10:32:43;;;;;;;2.83;1.93;;;31.20;68.70;;;;;;5115390;28;20187;-81
2022/05/20 10:35:17;;;;;;;2.87;1.90;;;31.50;68.20;;;;;;5108030;28;20208;-79
2022/05/20 10:37:59;;;;;;;4.13;2.50;;;31.50;63.50;;;;;;5118497;28;20204;-81
2022/05/20 10:40:34;;;;;;;4.20;2.20;;;31.40;62.10;;;;;;5117538;28;20200;-80
2022/05/20 10:43:27;;;;;;;2.77;2.27;;;31.10;60.80;;;;;;5115929;28;20190;-81
2022/05/20 10:49:17;;;;;;;4.57;2.30;;;31.30;62.30;;;;;;5117762;28;20153;-77
2022/05/20 10:51:55;;;;;;;4.50;2.27;;;31.40;62.30;;;;;;5114665;28;20171;-76
2022/05/20 10:54:58;;;;;;;5.83;2.20;;;31.80;62.00;;;;;;5114799;28;20562;-76
2022/05/20 10:57:45;;;;;;;7.37;2.30;;;31.90;58.70;;;;;;5114605;28;20158;-78
2022/05/20 11:00:25;;;;;;;4.67;2.33;;;32.20;59.10;;;;;;5114370;28;20196;-78
2022/05/20 11:03:15;;;;;;;4.43;2.10;;;32.40;59.60;;;;;;5114538;28;20167;-77
2022/05/20 11:06:00;;;;;;;2.27;1.87;;;32.40;56.20;;;;;;5115540;28;20575;-78
2022/05/20 11:08:30;;;;;;;4.53;2.47;;;32.20;54.30;;;;;;5114678;28;20185;-78
2022/05/20 11:11:09;;;;;;;3.33;2.17;;;32.30;57.20;;;;;;5114987;28;20621;-78
2022/05/20 11:14:01;;;;;;;2.10;1.90;;;32.80;55.90;;;;;;5115016;28;20661;-78
2022/05/20 11:16:44;;;;;;;3.37;2.30;;;32.80;56.80;;;;;;5100703;28;20185;-82
2022/05/20 11:19:28;;;;;;;3.63;2.37;;;32.80;54.20;;;;;;5116728;28;20169;-81
2022/05/20 11:22:14;;;;;;;4.13;2.50;;;32.90;53.90;;;;;;5116916;28;20156;-81
2022/05/20 11:25:13;;;;;;;2.23;2.03;;;32.70;59.80;;;;;;5110573;28;20267;-82
2022/05/20 11:27:53;;;;;;;4.10;2.13;;;33.10;55.80;;;;;;5116986;28;20178;-82
2022/05/20 11:30:28;;;;;;;2.93;2.17;;;32.90;54.90;;;;;;5114814;28;20158;-81
2022/05/20 11:33:28;;;;;;;5.17;2.27;;;33.00;59.30;;;;;;5114720;28;20150;-81
2022/05/20 11:36:28;;;;;;;4.23;2.40;;;33.50;54.20;;;;;;5113067;28;20282;-82
2022/05/20 11:38:56;;;;;;;4.27;2.10;;;33.70;56.60;;;;;;5116569;28;20628;-82
2022/05/20 11:41:34;;;;;;;4.47;2.50;;;34.00;54.10;;;;;;5116215;28;20168;-78
2022/05/20 11:44:24;;;;;;;6.00;2.30;;;33.60;51.60;;;;;;5116123;28;20173;-82
2022/05/20 11:47:14;;;;;;;2.13;1.90;;;33.70;52.10;;;;;;5117358;28;20158;-78
2022/05/20 11:50:10;;;;;;;3.67;2.07;;;33.70;56.30;;;;;;5114107;28;20158;-76
2022/05/20 11:52:56;;;;;;;4.07;2.10;;;33.50;49.00;;;;;;5114024;28;20161;-74
2022/05/20 11:55:40;;;;;;;4.13;2.53;;;33.70;51.40;;;;;;5113860;28;20214;-77
2022/05/20 11:58:14;;;;;;;3.30;2.10;;;34.00;49.20;;;;;;5115773;28;20166;-80
2022/05/20 12:00:42;;;;;;;4.57;2.00;;;34.10;50.20;;;;;;5115769;28;20737;-80
2022/05/20 12:04:06;;;;;;;4.73;2.47;;;34.20;52.20;;;;;;5116584;28;20172;-80
2022/05/20 12:06:23;;;;;;;5.37;2.20;;;34.70;50.70;;;;;;5115977;28;20179;-80
2022/05/20 12:08:52;;;;;;;3.17;2.10;;;34.40;50.50;;;;;;5115640;28;20224;-80
2022/05/20 12:11:26;;;;;;;3.30;2.30;;;34.50;48.20;;;;;;5116032;28;20224;-80
2022/05/20 12:14:02;;;;;;;4.10;2.07;;;34.40;49.10;;;;;;5115000;28;20212;-81
2022/05/20 12:16:30;;;;;;;2.10;1.90;;;34.40;50.70;;;;;;5116979;28;20175;-80
2022/05/20 12:24:51;;;;;;;5.37;2.47;;;35.10;46.40;;;;;;5121791;28;20201;-80
2022/05/20 12:27:23;;;;;;;3.20;2.10;;;35.10;45.10;;;;;;5119275;28;20179;-80
2022/05/20 12:29:55;;;;;;;6.20;2.50;;;35.30;51.10;;;;;;5118515;28;20545;-77
2022/05/20 12:32:35;;;;;;;3.30;2.63;;;35.40;46.40;;;;;;5118854;28;20526;-80
2022/05/20 12:35:26;;;;;;;5.07;2.43;;;35.20;44.60;;;;;;5118244;28;20219;-80
2022/05/20 12:37:58;;;;;;;2.80;2.20;;;35.20;45.30;;;;;;5119430;28;20175;-80
2022/05/20 12:40:27;;;;;;;4.23;2.30;;;35.30;47.90;;;;;;5119383;28;20157;-80
2022/05/20 12:43:08;;;;;;;5.23;2.57;;;35.50;48.20;;;;;;5119985;28;20163;-77
2022/05/20 12:45:51;;;;;;;7.20;2.30;;;35.50;46.90;;;;;;5120418;28;20199;-78
2022/05/20 12:48:22;;;;;;;5.37;2.20;;;35.70;45.90;;;;;;5120577;28;20198;-78
2022/05/20 12:51:16;;;;;;;4.33;2.60;;;35.60;46.30;;;;;;5118626;28;20316;-79
2022/05/20 12:53:42;;;;;;;2.80;2.53;;;36.00;50.80;;;;;;5113125;28;20213;-79
2022/05/20 12:56:25;;;;;;;5.33;2.30;;;36.20;50.50;;;;;;5122345;28;20191;-79
2022/05/20 12:58:50;;;;;;;4.53;2.33;;;36.50;50.00;;;;;;5122155;28;20157;-78
2022/05/20 13:01:18;;;;;;;4.53;2.97;;;36.20;47.00;;;;;;5121705;28;20171;-78
2022/05/20 13:03:46;;;;;;;3.57;2.43;;;36.10;46.30;;;;;;5123049;28;20233;-78
2022/05/20 13:06:41;;;;;;;3.03;2.53;;;35.30;44.10;;;;;;5123426;28;20197;-79
2022/05/20 13:09:07;;;;;;;4.63;2.47;;;34.90;47.40;;;;;;5118428;28;20184;-79
2022/05/20 13:11:48;;;;;;;3.40;2.10;;;35.30;45.40;;;;;;5123297;28;20206;-78
2022/05/20 13:14:17;;;;;;;8.27;2.93;;;35.20;47.30;;;;;;5123707;28;20296;-80
2022/05/20 13:16:54;;;;;;;4.70;1.93;;;35.10;45.20;;;;;;5124051;28;20667;-78
2022/05/20 13:19:41;;;;;;;4.90;2.90;;;35.30;43.50;;;;;;5129020;28;20147;-77
2022/05/20 13:22:07;;;;;;;5.70;2.30;;;35.60;44.00;;;;;;5128258;28;20528;-78
2022/05/20 13:24:36;;;;;;;3.60;1.80;;;35.30;50.10;;;;;;5121221;28;20196;-78
2022/05/20 13:27:13;;;;;;;4.33;2.13;;;35.70;44.70;;;;;;5118036;28;20187;-77
2022/05/20 13:29:41;;;;;;;3.40;2.30;;;35.50;41.80;;;;;;5119816;28;20244;-77
2022/05/20 13:32:28;;;;;;;10.90;2.37;;;35.10;47.50;;;;;;5117680;28;20177;-78
2022/05/20 13:34:56;;;;;;;4.30;2.20;;;34.70;42.90;;;;;;5118065;28;20280;-78
2022/05/20 13:37:29;;;;;;;4.93;2.40;;;34.70;44.20;;;;;;5117808;28;20221;-78
2022/05/20 13:40:11;;;;;;;3.50;2.10;;;34.60;45.10;;;;;;5116201;28;20163;-78
2022/05/20 13:42:39;;;;;;;2.50;2.03;;;35.20;45.50;;;;;;5117018;28;20181;-79
2022/05/20 13:45:12;;;;;;;10.30;2.80;;;35.50;46.30;;;;;;5120333;28;20196;-79
2022/05/20 13:50:24;;;;;;;4.27;2.00;;;35.30;43.70;;;;;;5120136;28;20164;-79
2022/05/20 13:52:53;;;;;;;4.17;2.47;;;35.30;46.70;;;;;;5118969;28;20179;-79